PWSweather.com
Personal Weather Stations
Station Observations
WISCHPK61
Green Bay Schmitt Park, Green Bay, WI 54311

Green Bay Schmitt ParkGreen Bay, WI 54311

Lat: 44.514277, Lon: -87.935067

Elevation: 735

Station Type: Acu Rite Pro Weather Center model 02032C

http://greenbayweathercam.com

High Low Average
Temperature 18.1°F-7.7°C -11.8°F-24.3°C 5.1°F-14.9°C
Dew Point 17.8°F-7.9°C -22.7°F-30.4°C 2.6°F-16.3°C
Winds 1.2 mph 1.9 kmh Calm Calm Calm SCalm S
Wind Gusts 1.2 mph1.9 kmh -- --
Humidity 99% 56% 91%
Pressure 29.61 in1002.7 mb 29.39 in995.3 mb -
Precipitation 0.00 in0.0 mm - -
Hour Temp Dew Point Humidity Winds Wind Gusts Pressure Precip Precip Rate Daily Precip Total
12:00 AM -11.6°F-24.2°C -11.8°F-24.3°C 99% Calm Calm -- 29.59 in1002.0 mb - 0.00 in0.0 mm 0.00 in0.0 mm
01:00 AM -11.8°F-24.3°C -22.7°F-30.4°C 57% Calm Calm -- 29.59 in1002.0 mb - 0.00 in0.0 mm 0.00 in0.0 mm
02:00 AM -10.7°F-23.7°C -10.9°F-23.8°C 99% Calm Calm -- 29.58 in1001.7 mb - 0.00 in0.0 mm 0.00 in0.0 mm
03:00 AM -10.1°F-23.4°C -10.3°F-23.5°C 99% Calm Calm -- 29.60 in1002.4 mb - 0.00 in0.0 mm 0.00 in0.0 mm
04:00 AM -9.2°F-22.9°C -12.0°F-24.4°C 87% Calm Calm -- 29.59 in1002.0 mb - 0.00 in0.0 mm 0.00 in0.0 mm
05:00 AM -8.0°F-22.2°C -8.2°F-22.3°C 99% Calm Calm -- 29.58 in1001.7 mb - 0.00 in0.0 mm 0.00 in0.0 mm
06:00 AM -7.2°F-21.8°C -7.4°F-21.9°C 99% Calm Calm -- 29.57 in1001.4 mb - 0.00 in0.0 mm 0.00 in0.0 mm
07:00 AM -6.2°F-21.2°C -6.4°F-21.3°C 99% Calm Calm -- 29.58 in1001.7 mb - 0.00 in0.0 mm 0.00 in0.0 mm
08:00 AM -5.3°F-20.7°C -5.5°F-20.8°C 99% Calm Calm -- 29.58 in1001.7 mb - 0.00 in0.0 mm 0.00 in0.0 mm
09:00 AM -3.5°F-19.7°C -3.7°F-19.8°C 99% Calm Calm -- 29.59 in1002.0 mb - 0.00 in0.0 mm 0.00 in0.0 mm
10:00 AM -0.8°F-18.2°C -1.0°F-18.3°C 99% Calm Calm -- 29.61 in1002.7 mb - 0.00 in0.0 mm 0.00 in0.0 mm
11:00 AM 7.2°F-13.8°C -5.2°F-20.7°C 56% Calm Calm -- 29.60 in1002.4 mb - 0.00 in0.0 mm 0.00 in0.0 mm
12:00 PM 11.1°F-11.6°C -0.1°F-17.8°C 60% 1.2 mph SSE1.9 kmh SSE 1.2 mph1.9 kmh 29.61 in1002.7 mb - 0.00 in0.0 mm 0.00 in0.0 mm
01:00 PM 16.9°F-8.4°C 12.9°F-10.6°C 84% Calm Calm -- 29.59 in1002.0 mb - 0.00 in0.0 mm 0.00 in0.0 mm
02:00 PM 18.0°F-7.8°C 17.8°F-7.9°C 99% Calm Calm -- 29.57 in1001.4 mb - 0.00 in0.0 mm 0.00 in0.0 mm
03:00 PM 18.1°F-7.7°C 8.0°F-13.3°C 64% Calm Calm -- 29.55 in1000.7 mb - 0.00 in0.0 mm 0.00 in0.0 mm
04:00 PM 15.1°F-9.4°C 14.9°F-9.5°C 99% Calm Calm -- 29.54 in1000.3 mb - 0.00 in0.0 mm 0.00 in0.0 mm
05:00 PM 13.8°F-10.1°C 13.6°F-10.2°C 99% Calm Calm -- 29.54 in1000.3 mb - 0.00 in0.0 mm 0.00 in0.0 mm
06:00 PM 12.1°F-11.1°C 11.8°F-11.2°C 99% Calm Calm -- 29.51 in999.3 mb - 0.00 in0.0 mm 0.00 in0.0 mm
07:00 PM 11.8°F-11.2°C 11.6°F-11.3°C 99% Calm Calm -- 29.49 in998.6 mb - 0.00 in0.0 mm 0.00 in0.0 mm
08:00 PM 12.6°F-10.8°C 12.4°F-10.9°C 99% Calm Calm -- 29.47 in998.0 mb - 0.00 in0.0 mm 0.00 in0.0 mm
09:00 PM 13.6°F-10.2°C 13.4°F-10.3°C 99% Calm Calm -- 29.44 in997.0 mb - 0.00 in0.0 mm 0.00 in0.0 mm
10:00 PM 14.7°F-9.6°C 14.5°F-9.7°C 99% Calm Calm -- 29.43 in996.6 mb - 0.00 in0.0 mm 0.00 in0.0 mm
11:00 PM 15.1°F-9.4°C 14.9°F-9.5°C 99% Calm Calm -- 29.40 in995.6 mb - 0.00 in0.0 mm 0.00 in0.0 mm